Time;durP1;ratioP1;P1;durP2;ratioP2;P2;SDS_P1;SDS_P2;PMS_P1;PMS_P2;Temp;Humidity;BMP_temperature;BMP_pressure;BME280_temperature;BME280_humidity;BME280_pressure;Samples;Min_cycle;Max_cycle;Signal;HPM_P1;HPM_P2
2023/11/22 00:00:34;;;;;;;37.45;19.95;;;;;;;8.75;100.00;96775.88;4995092;28;20029;-78
2023/11/22 00:03:00;;;;;;;49.67;23.50;;;;;;;8.68;100.00;96759.44;4994942;28;20030;-78
2023/11/22 00:05:25;;;;;;;52.85;27.08;;;;;;;8.59;100.00;96768.03;5012424;28;20030;-77
2023/11/22 00:07:51;;;;;;;61.35;31.30;;;;;;;8.53;100.00;96778.25;5011177;28;20022;-77
2023/11/22 00:10:17;;;;;;;52.08;26.35;;;;;;;8.58;100.00;96781.50;4994944;28;20088;-78
2023/11/22 00:12:43;;;;;;;25.63;12.93;;;;;;;8.51;100.00;96774.84;4995203;28;20053;-77
2023/11/22 00:15:10;;;;;;;25.05;11.88;;;;;;;8.46;100.00;96760.97;5012375;28;20453;-77
2023/11/22 00:17:35;;;;;;;23.35;12.30;;;;;;;8.54;100.00;96778.16;5011102;28;20117;-78
2023/11/22 00:20:02;;;;;;;22.85;10.18;;;;;;;8.58;100.00;96774.31;5011186;28;20104;-77
2023/11/22 00:22:28;;;;;;;19.58;10.27;;;;;;;8.50;100.00;96771.31;4994889;28;20030;-77
2023/11/22 00:24:54;;;;;;;14.52;8.65;;;;;;;8.54;100.00;96771.97;5011089;28;20441;-77
2023/11/22 00:27:19;;;;;;;21.73;9.75;;;;;;;8.56;100.00;96776.25;5010815;28;20041;-78
2023/11/22 00:29:46;;;;;;;16.75;9.20;;;;;;;8.55;100.00;96768.38;4994306;28;20092;-78
2023/11/22 00:32:12;;;;;;;21.17;10.85;;;;;;;8.62;100.00;96774.97;5011050;28;20022;-77
2023/11/22 00:34:37;;;;;;;21.25;10.82;;;;;;;8.58;100.00;96766.31;5011393;28;20033;-78
2023/11/22 00:37:03;;;;;;;18.30;10.15;;;;;;;8.58;100.00;96773.50;5011278;28;20408;-77
2023/11/22 00:39:29;;;;;;;21.05;10.30;;;;;;;8.59;100.00;96777.84;5010621;28;20092;-78
2023/11/22 00:41:55;;;;;;;19.73;10.85;;;;;;;8.42;100.00;96763.00;5010747;28;20025;-79
2023/11/22 00:44:21;;;;;;;27.40;13.32;;;;;;;8.45;100.00;96769.91;5010053;28;20414;-76
2023/11/22 00:46:47;;;;;;;27.55;11.68;;;;;;;8.48;100.00;96773.25;5011035;28;20025;-77
2023/11/22 00:49:12;;;;;;;22.95;12.20;;;;;;;8.46;100.00;96768.97;4994159;28;20402;-77
2023/11/22 00:51:38;;;;;;;23.85;12.07;;;;;;;8.45;100.00;96767.25;5010572;28;20077;-77
2023/11/22 00:54:04;;;;;;;28.92;13.77;;;;;;;8.45;100.00;96764.59;4994066;28;20474;-77
2023/11/22 00:56:30;;;;;;;23.17;12.00;;;;;;;8.38;100.00;96749.94;5010314;28;20513;-77
2023/11/22 00:58:57;;;;;;;21.27;10.95;;;;;;;8.44;100.00;96753.06;5010229;28;20096;-77
2023/11/22 01:01:22;;;;;;;21.80;11.05;;;;;;;8.42;100.00;96757.66;5010110;28;20091;-78
2023/11/22 01:03:48;;;;;;;27.35;12.45;;;;;;;8.44;100.00;96755.75;4994265;28;20541;-78
2023/11/22 01:06:14;;;;;;;28.63;14.63;;;;;;;8.51;100.00;96766.84;5010361;28;20029;-77
2023/11/22 01:08:40;;;;;;;31.30;14.10;;;;;;;8.44;100.00;96760.22;4993873;28;20095;-78
2023/11/22 01:11:06;;;;;;;40.55;17.50;;;;;;;8.51;100.00;96778.38;5010288;28;20187;-78
2023/11/22 01:13:42;;;;;;;62.00;28.80;;;;;;;8.53;100.00;96788.91;5009860;28;20095;-78
2023/11/22 01:16:08;;;;;;;48.97;22.98;;;;;;;8.46;100.00;96774.31;4995188;28;20033;-77
2023/11/22 01:18:34;;;;;;;45.47;20.85;;;;;;;8.42;100.00;96781.63;5009391;28;20109;-77
2023/11/22 01:21:00;;;;;;;45.78;22.15;;;;;;;8.53;100.00;96787.09;5010087;28;20125;-78
2023/11/22 01:23:27;;;;;;;42.10;22.20;;;;;;;8.52;100.00;96769.41;5010035;28;20109;-77
2023/11/22 01:25:53;;;;;;;40.05;19.55;;;;;;;8.52;100.00;96768.56;5009945;28;20600;-77
2023/11/22 01:28:19;;;;;;;43.25;20.08;;;;;;;8.48;100.00;96756.41;4994014;28;20474;-78
2023/11/22 01:30:49;;;;;;;35.60;19.17;;;;;;;8.50;100.00;96765.13;4992448;28;20088;-77
2023/11/22 01:33:15;;;;;;;42.28;19.75;;;;;;;8.55;100.00;96760.38;4977913;28;20061;-76
2023/11/22 01:35:41;;;;;;;38.10;17.15;;;;;;;8.65;100.00;96758.78;4993697;28;20480;-78
2023/11/22 01:38:07;;;;;;;38.85;17.42;;;;;;;8.58;100.00;96746.84;4993552;28;20105;-77
2023/11/22 01:40:33;;;;;;;32.22;17.10;;;;;;;8.53;100.00;96732.94;4993376;28;20432;-78
2023/11/22 01:42:59;;;;;;;35.40;17.17;;;;;;;8.45;100.00;96721.97;4993574;28;20018;-79
2023/11/22 01:45:25;;;;;;;36.85;16.55;;;;;;;8.45;100.00;96714.81;4977104;28;20037;-77
2023/11/22 01:47:51;;;;;;;40.28;18.52;;;;;;;8.46;100.00;96729.84;4977277;28;20029;-77
2023/11/22 01:50:17;;;;;;;47.22;20.63;;;;;;;8.48;100.00;96737.75;4993577;28;20396;-77
2023/11/22 01:52:43;;;;;;;43.05;21.92;;;;;;;8.42;100.00;96735.47;4993347;28;20113;-78
2023/11/22 01:55:09;;;;;;;54.65;23.90;;;;;;;8.43;100.00;96745.19;4993585;28;20021;-78
2023/11/22 01:57:35;;;;;;;54.00;23.73;;;;;;;8.35;100.00;96729.69;4993180;28;20030;-78
2023/11/22 02:00:03;;;;;;;53.10;21.92;;;;;;;8.27;100.00;96731.13;4986906;28;20026;-78
2023/11/22 02:02:30;;;;;;;45.40;22.35;;;;;;;8.26;100.00;96734.75;4977208;28;20512;-77
2023/11/22 02:04:55;;;;;;;42.40;20.90;;;;;;;8.25;100.00;96738.34;4976923;28;20504;-77
2023/11/22 02:07:21;;;;;;;43.85;21.20;;;;;;;8.25;100.00;96733.03;4993518;28;20030;-77
2023/11/22 02:09:46;;;;;;;40.67;20.15;;;;;;;8.16;100.00;96724.69;4976989;28;20042;-77
2023/11/22 02:12:12;;;;;;;41.05;19.50;;;;;;;8.12;100.00;96739.16;4977220;28;20481;-78
2023/11/22 02:14:38;;;;;;;40.38;18.05;;;;;;;8.11;100.00;96737.47;4993375;28;20050;-77
2023/11/22 02:17:04;;;;;;;30.90;16.70;;;;;;;8.23;100.00;96746.47;4977203;28;20079;-78
2023/11/22 02:19:30;;;;;;;39.95;19.17;;;;;;;8.11;100.00;96732.16;4993759;28;20033;-77
2023/11/22 02:21:55;;;;;;;37.00;18.67;;;;;;;8.22;100.00;96762.53;4975801;28;20034;-77
2023/11/22 02:24:21;;;;;;;46.33;21.30;;;;;;;8.17;100.00;96769.03;4976895;28;20034;-78
2023/11/22 02:26:47;;;;;;;38.13;19.60;;;;;;;8.10;100.00;96757.06;4998672;28;20049;-78
2023/11/22 02:29:13;;;;;;;42.28;21.58;;;;;;;8.09;100.00;96746.53;5011144;28;20041;-78
2023/11/22 02:31:41;;;;;;;41.08;19.33;;;;;;;8.09;100.00;96766.00;5013227;28;20033;-77
2023/11/22 02:34:06;;;;;;;37.83;19.95;;;;;;;8.10;100.00;96753.53;5013184;28;20044;-79
2023/11/22 02:36:32;;;;;;;41.88;19.02;;;;;;;8.14;100.00;96763.03;4996811;28;20042;-77
2023/11/22 02:38:58;;;;;;;37.47;19.20;;;;;;;8.13;100.00;96754.19;5012818;28;20440;-77
2023/11/22 02:41:25;;;;;;;37.38;17.05;;;;;;;8.07;100.00;96746.59;4996715;28;20121;-78
2023/11/22 02:43:51;;;;;;;32.13;16.38;;;;;;;8.05;100.00;96751.19;5012743;28;20037;-77
2023/11/22 02:46:16;;;;;;;35.72;17.65;;;;;;;8.08;100.00;96753.66;5013318;28;20034;-79
2023/11/22 02:48:42;;;;;;;28.23;14.15;;;;;;;8.02;100.00;96758.50;4996558;28;20030;-77
2023/11/22 02:51:07;;;;;;;23.80;11.57;;;;;;;7.83;100.00;96742.00;5012972;28;20029;-78
2023/11/22 02:53:33;;;;;;;21.55;11.07;;;;;;;7.74;100.00;96738.13;4996455;28;20029;-78
2023/11/22 02:56:00;;;;;;;22.17;8.85;;;;;;;7.82;100.00;96748.28;5012576;28;20069;-78
2023/11/22 02:58:27;;;;;;;20.92;9.57;;;;;;;7.82;100.00;96759.78;5012758;28;20144;-77
2023/11/22 03:00:54;;;;;;;22.55;10.77;;;;;;;7.91;100.00;96761.00;5012403;28;20033;-77
2023/11/22 03:03:20;;;;;;;20.33;10.20;;;;;;;7.78;100.00;96747.63;5012837;28;20018;-77
2023/11/22 03:05:45;;;;;;;20.67;9.57;;;;;;;7.79;100.00;96752.00;4996101;28;20084;-77
2023/11/22 03:08:12;;;;;;;20.98;10.25;;;;;;;7.84;100.00;96759.69;5012469;28;20489;-78
2023/11/22 03:10:38;;;;;;;24.48;12.73;;;;;;;7.76;100.00;96761.97;5012535;28;20125;-77
2023/11/22 03:13:05;;;;;;;19.33;9.80;;;;;;;7.79;100.00;96762.63;5012560;28;20517;-77
2023/11/22 03:15:30;;;;;;;20.25;9.95;;;;;;;7.88;100.00;96770.03;4996310;28;20049;-78
2023/11/22 03:17:56;;;;;;;21.75;11.77;;;;;;;7.90;100.00;96770.81;5012185;28;20026;-78
2023/11/22 03:20:21;;;;;;;25.10;13.57;;;;;;;7.92;100.00;96763.56;5013877;28;20057;-78
2023/11/22 03:22:50;;;;;;;35.45;17.48;;;;;;;7.93;100.00;96759.97;5012351;28;20030;-78
2023/11/22 03:25:16;;;;;;;26.13;13.77;;;;;;;7.95;100.00;96758.06;5012400;28;20032;-78
2023/11/22 03:27:41;;;;;;;28.02;11.98;;;;;;;7.93;100.00;96759.09;5011999;28;20050;-77
2023/11/22 03:30:11;;;;;;;38.22;14.40;;;;;;;7.99;100.00;96767.56;5012090;28;20022;-77
2023/11/22 03:32:43;;;;;;;32.22;14.63;;;;;;;8.08;100.00;96768.78;4996194;28;20038;-77
2023/11/22 03:35:10;;;;;;;33.00;13.65;;;;;;;8.07;100.00;96773.22;5012043;28;20551;-79
2023/11/22 03:37:36;;;;;;;30.05;14.88;;;;;;;8.04;100.00;96757.47;4995586;28;20432;-77
2023/11/22 03:40:02;;;;;;;30.17;13.77;;;;;;;8.10;100.00;96765.03;5011861;28;20026;-78
2023/11/22 03:42:28;;;;;;;34.35;14.55;;;;;;;8.07;100.00;96762.59;5011502;28;20053;-78
2023/11/22 03:44:53;;;;;;;105.72;38.40;;;;;;;8.01;100.00;96759.47;5011746;28;20072;-77
2023/11/22 03:47:19;;;;;;;76.40;37.13;;;;;;;7.94;100.00;96761.66;5011923;28;20022;-77
2023/11/22 03:49:45;;;;;;;70.47;34.25;;;;;;;7.81;100.00;96771.41;5011715;28;20022;-78
2023/11/22 03:52:11;;;;;;;63.78;30.15;;;;;;;7.75;100.00;96778.91;5011692;28;20061;-77
2023/11/22 03:54:37;;;;;;;35.25;17.85;;;;;;;7.63;100.00;96769.88;5011927;28;20025;-78
2023/11/22 03:57:03;;;;;;;36.92;16.20;;;;;;;7.74;100.00;96786.03;5011715;28;20486;-77
2023/11/22 03:59:29;;;;;;;32.13;15.95;;;;;;;7.77;100.00;96790.31;5011835;28;20029;-77
2023/11/22 04:01:54;;;;;;;28.23;14.52;;;;;;;7.80;100.00;96780.31;5011800;28;20021;-77
2023/11/22 04:04:20;;;;;;;27.63;14.55;;;;;;;7.83;100.00;96798.78;5011626;28;20063;-77
2023/11/22 04:06:46;;;;;;;25.10;12.50;;;;;;;7.77;100.00;96791.16;5011722;28;20026;-78
2023/11/22 04:09:14;;;;;;;35.10;12.57;;;;;;;7.81;100.00;96802.47;4994844;28;20037;-78
2023/11/22 04:11:39;;;;;;;22.98;11.48;;;;;;;7.77;100.00;96806.28;4995633;28;20025;-78
2023/11/22 04:14:06;;;;;;;25.30;12.18;;;;;;;7.86;100.00;96809.22;5011235;28;20025;-77
2023/11/22 04:16:31;;;;;;;22.67;12.25;;;;;;;7.90;100.00;96816.06;5011345;28;20030;-77
2023/11/22 04:18:57;;;;;;;28.27;13.20;;;;;;;7.95;100.00;96816.63;5010731;28;20572;-77
2023/11/22 04:21:24;;;;;;;37.88;16.95;;;;;;;7.98;100.00;96821.75;5011022;28;20036;-77
2023/11/22 04:23:49;;;;;;;37.33;17.10;;;;;;;7.86;100.00;96814.53;4995174;28;20524;-77
2023/11/22 04:26:15;;;;;;;36.30;16.30;;;;;;;7.87;100.00;96824.25;5012095;28;20049;-77
2023/11/22 04:28:41;;;;;;;37.65;17.48;;;;;;;7.90;100.00;96813.41;4994879;28;20481;-78
2023/11/22 04:31:08;;;;;;;34.53;16.85;;;;;;;7.95;100.00;96826.41;4978741;28;20168;-77
2023/11/22 04:33:34;;;;;;;30.38;14.90;;;;;;;7.96;100.00;96817.50;4978603;28;20034;-77
2023/11/22 04:36:00;;;;;;;30.52;14.50;;;;;;;7.95;100.00;96816.63;4978273;28;20350;-77
2023/11/22 04:38:26;;;;;;;29.48;14.38;;;;;;;7.90;100.00;96826.72;4994470;28;20033;-77
2023/11/22 04:40:52;;;;;;;34.08;14.93;;;;;;;7.89;100.00;96822.34;4978399;28;20511;-78
2023/11/22 04:43:17;;;;;;;35.63;16.92;;;;;;;7.87;100.00;96829.59;4978108;28;20034;-77
2023/11/22 04:45:43;;;;;;;29.55;13.75;;;;;;;7.95;100.00;96839.72;4994562;28;20100;-78
2023/11/22 04:48:09;;;;;;;35.95;15.32;;;;;;;7.92;100.00;96840.78;4994136;28;20033;-77
2023/11/22 04:50:35;;;;;;;26.58;13.48;;;;;;;7.94;100.00;96852.19;4978321;28;20029;-77
2023/11/22 04:53:04;;;;;;;30.80;13.88;;;;;;;7.87;100.00;96852.69;4976880;28;20029;-78
2023/11/22 04:55:29;;;;;;;29.63;13.40;;;;;;;7.95;100.00;96847.72;4978293;28;20030;-79
2023/11/22 04:57:55;;;;;;;25.20;12.57;;;;;;;7.94;100.00;96859.31;4975696;28;20387;-79
2023/11/22 05:00:22;;;;;;;25.13;13.38;;;;;;;7.93;100.00;96861.16;4977599;28;20065;-77
2023/11/22 05:02:48;;;;;;;36.72;16.65;;;;;;;7.93;100.00;96863.81;4992395;28;20084;-78
2023/11/22 05:05:14;;;;;;;28.58;15.65;;;;;;;7.92;100.00;96867.41;5011808;28;20025;-78
2023/11/22 05:07:39;;;;;;;32.05;14.93;;;;;;;8.02;100.00;96876.53;4977982;28;20113;-76
2023/11/22 05:10:08;;;;;;;37.35;14.80;;;;;;;7.93;100.00;96871.78;4994985;28;20024;-79
2023/11/22 05:12:34;;;;;;;25.38;14.23;;;;;;;7.95;100.00;96869.88;4978392;28;20056;-75
2023/11/22 05:15:00;;;;;;;33.47;15.43;;;;;;;8.04;100.00;96879.97;4994658;28;20041;-80
2023/11/22 05:17:25;;;;;;;44.22;18.42;;;;;;;8.02;100.00;96881.88;4994732;28;20036;-75
2023/11/22 05:19:51;;;;;;;40.85;19.80;;;;;;;8.03;100.00;96891.56;5011501;28;20037;-78
2023/11/22 05:22:16;;;;;;;39.35;18.48;;;;;;;7.95;100.00;96885.00;4994335;28;20117;-77
2023/11/22 05:24:42;;;;;;;36.67;17.50;;;;;;;7.90;100.00;96895.94;5010930;28;20040;-77
2023/11/22 05:27:09;;;;;;;39.20;18.05;;;;;;;7.86;100.00;96897.06;5002021;28;20046;-83
2023/11/22 05:29:34;;;;;;;34.28;14.32;;;;;;;7.82;100.00;96905.34;5009231;28;20782;-81
2023/11/22 05:32:01;;;;;;;26.00;12.40;;;;;;;7.81;100.00;96901.84;5009425;28;20036;-79
2023/11/22 05:34:26;;;;;;;28.50;13.20;;;;;;;7.79;100.00;96906.38;5010287;28;20030;-80
2023/11/22 05:36:52;;;;;;;29.73;13.65;;;;;;;7.80;100.00;96918.75;5006050;28;20048;-78
2023/11/22 05:39:18;;;;;;;30.00;13.80;;;;;;;7.75;100.00;96915.53;5009670;28;20061;-77
2023/11/22 05:41:44;;;;;;;34.55;14.95;;;;;;;7.74;100.00;96918.25;5007744;28;20061;-75
2023/11/22 05:44:09;;;;;;;50.20;16.98;;;;;;;7.73;100.00;96912.06;5010053;28;20495;-82
2023/11/22 05:46:35;;;;;;;34.80;13.25;;;;;;;7.84;100.00;96925.63;5011280;28;20025;-82
2023/11/22 05:49:00;;;;;;;32.92;15.40;;;;;;;7.81;100.00;96915.16;5008844;28;20026;-82
2023/11/22 05:51:26;;;;;;;33.60;14.23;;;;;;;7.82;100.00;96911.53;5008426;28;20037;-79
2023/11/22 05:53:53;;;;;;;45.22;15.80;;;;;;;7.81;100.00;96925.81;5009135;28;20041;-81
2023/11/22 05:56:18;;;;;;;31.42;11.77;;;;;;;7.89;100.00;96934.16;5010798;28;20022;-80
2023/11/22 05:58:44;;;;;;;43.53;15.90;;;;;;;7.83;100.00;96926.56;5009108;28;20034;-80
2023/11/22 06:01:12;;;;;;;36.22;15.55;;;;;;;7.88;100.00;96936.91;5008852;28;20040;-80
2023/11/22 06:03:38;;;;;;;36.50;15.50;;;;;;;7.91;100.00;96945.56;4993368;28;20143;-82
2023/11/22 06:06:04;;;;;;;35.80;14.55;;;;;;;7.92;100.00;96946.44;5012615;28;20742;-79
2023/11/22 06:08:30;;;;;;;33.05;15.63;;;;;;;7.91;100.00;96942.91;5013152;28;20026;-80
2023/11/22 06:10:57;;;;;;;35.85;16.20;;;;;;;8.07;100.00;96958.81;5013151;28;20104;-80
2023/11/22 06:13:23;;;;;;;41.65;16.85;;;;;;;8.09;100.00;96957.75;5014883;28;20470;-80
2023/11/22 06:15:49;;;;;;;38.50;16.15;;;;;;;8.12;100.00;96957.56;5013598;28;20104;-81
2023/11/22 06:18:15;;;;;;;37.33;17.13;;;;;;;8.17;100.00;96970.59;5012821;28;20042;-79
2023/11/22 06:20:41;;;;;;;39.50;16.02;;;;;;;8.29;100.00;96991.19;5011939;28;20018;-80
2023/11/22 06:23:07;;;;;;;34.80;17.15;;;;;;;8.27;100.00;96987.75;5011652;28;20022;-80
2023/11/22 06:25:32;;;;;;;38.40;17.80;;;;;;;8.30;100.00;96994.72;5013560;28;20493;-82
2023/11/22 06:27:58;;;;;;;43.55;16.02;;;;;;;8.42;100.00;97015.28;5014528;28;20413;-82
2023/11/22 06:30:24;;;;;;;32.35;15.73;;;;;;;8.37;100.00;97015.53;4997380;28;20026;-83
2023/11/22 06:32:56;;;;;;;40.50;17.88;;;;;;;8.45;100.00;97029.28;4981402;28;20025;-81
2023/11/22 06:35:22;;;;;;;54.58;21.85;;;;;;;8.42;100.00;97026.78;4996715;28;20478;-81
2023/11/22 06:37:47;;;;;;;56.90;25.23;;;;;;;8.41;100.00;97026.88;4996465;28;20021;-81
2023/11/22 06:40:13;;;;;;;55.10;23.88;;;;;;;8.45;100.00;97036.41;4996607;28;20116;-78
2023/11/22 06:42:42;;;;;;;49.53;24.35;;;;;;;8.47;100.00;97047.81;4996998;28;20489;-80
2023/11/22 06:45:12;;;;;;;59.05;25.23;;;;;;;8.45;100.00;97047.06;4984136;28;20516;-80
2023/11/22 06:47:39;;;;;;;61.80;28.63;;;;;;;8.52;100.00;97057.22;4997899;28;20382;-81
2023/11/22 06:50:09;;;;;;;63.60;30.10;;;;;;;8.55;100.00;97065.03;4997092;28;20025;-79
2023/11/22 06:52:43;;;;;;;62.17;29.05;;;;;;;8.53;100.00;97058.97;4997654;28;20517;-80
2023/11/22 06:55:10;;;;;;;108.22;43.25;;;;;;;8.62;100.00;97065.53;5014108;28;20026;-77
2023/11/22 06:57:35;;;;;;;92.82;37.75;;;;;;;8.59;100.00;97069.25;4993209;28;20026;-78
2023/11/22 07:00:04;;;;;;;84.38;36.70;;;;;;;8.65;100.00;97068.00;4980252;28;20021;-78
2023/11/22 07:02:30;;;;;;;73.68;30.33;;;;;;;8.72;100.00;97069.34;4996914;28;20474;-78
2023/11/22 07:04:56;;;;;;;61.38;30.05;;;;;;;8.83;100.00;97066.03;5013930;28;20191;-77
2023/11/22 07:07:21;;;;;;;64.10;31.05;;;;;;;8.86;100.00;97064.00;4996033;28;20061;-77
2023/11/22 07:09:48;;;;;;;89.28;40.72;;;;;;;8.86;100.00;97050.66;4996096;28;20057;-77
2023/11/22 07:12:14;;;;;;;72.63;35.78;;;;;;;8.97;100.00;97063.34;4996162;28;20030;-76
2023/11/22 07:14:39;;;;;;;60.42;29.90;;;;;;;9.11;100.00;97065.97;4996257;28;20022;-77
2023/11/22 07:17:08;;;;;;;60.88;30.38;;;;;;;9.03;100.00;97055.81;5012888;28;20025;-76
2023/11/22 07:19:38;;;;;;;54.83;26.88;;;;;;;9.02;100.00;97070.06;5013103;28;20034;-78
2023/11/22 07:22:15;;;;;;;54.53;25.15;;;;;;;9.06;100.00;97063.59;4996826;28;20137;-77
2023/11/22 07:24:45;;;;;;;39.85;20.23;;;;;;;9.12;100.00;97068.53;4980378;28;20108;-77
2023/11/22 07:27:16;;;;;;;29.38;15.85;;;;;;;9.24;100.00;97073.09;4988363;28;20046;-77
2023/11/22 07:29:43;;;;;;;41.13;18.48;;;;;;;9.13;100.00;97070.28;5012072;28;20095;-77
2023/11/22 07:32:10;;;;;;;40.40;21.50;;;;;;;9.15;100.00;97079.03;5012301;28;20096;-78
2023/11/22 07:34:36;;;;;;;40.95;22.02;;;;;;;9.23;100.00;97087.38;5012066;28;20408;-78
2023/11/22 07:37:02;;;;;;;48.05;22.35;;;;;;;9.21;100.00;97089.31;5012048;28;20013;-78
2023/11/22 07:39:28;;;;;;;46.65;23.10;;;;;;;9.22;100.00;97091.03;5011827;28;20030;-79
2023/11/22 07:41:54;;;;;;;54.33;24.67;;;;;;;9.25;100.00;97100.66;5012069;28;20397;-78
2023/11/22 07:44:21;;;;;;;50.78;26.48;;;;;;;9.17;100.00;97103.78;5012149;28;20021;-78
2023/11/22 07:46:47;;;;;;;52.42;25.90;;;;;;;9.33;100.00;97109.00;5013101;28;20505;-78
2023/11/22 07:49:13;;;;;;;60.70;28.42;;;;;;;9.37;100.00;97115.00;4995801;28;20034;-78
2023/11/22 07:51:39;;;;;;;57.55;28.77;;;;;;;9.44;100.00;97116.34;5012885;28;20037;-77
2023/11/22 07:54:05;;;;;;;59.72;27.33;;;;;;;9.44;100.00;97127.03;5012991;28;20113;-75
2023/11/22 07:56:32;;;;;;;62.20;29.17;;;;;;;9.43;100.00;97109.28;5011641;28;20101;-77
2023/11/22 07:58:58;;;;;;;59.90;28.45;;;;;;;9.46;100.00;97109.94;4995237;28;20119;-76
2023/11/22 08:01:25;;;;;;;78.78;32.65;;;;;;;9.50;100.00;97106.13;4995249;28;20133;-75
2023/11/22 08:03:55;;;;;;;49.42;22.85;;;;;;;9.60;100.00;97122.38;5012567;28;20080;-76
2023/11/22 08:06:21;;;;;;;76.88;32.55;;;;;;;9.60;100.00;97117.03;5012262;28;20033;-78
2023/11/22 08:08:47;;;;;;;54.83;27.15;;;;;;;9.56;100.00;97121.75;5011256;28;20450;-78
2023/11/22 08:11:15;;;;;;;48.22;24.05;;;;;;;9.55;100.00;97119.16;5011639;28;20026;-78
2023/11/22 08:13:44;;;;;;;52.90;27.65;;;;;;;9.44;100.00;97119.88;5011366;28;20034;-77
2023/11/22 08:16:13;;;;;;;46.80;25.25;;;;;;;9.52;100.00;97130.03;5011535;28;20022;-78
2023/11/22 08:18:39;;;;;;;49.28;22.65;;;;;;;9.58;100.00;97133.19;5010827;28;20460;-76
2023/11/22 08:21:05;;;;;;;47.75;21.42;;;;;;;9.47;100.00;97129.50;5011472;28;20065;-78
2023/11/22 08:23:31;;;;;;;45.10;22.27;;;;;;;9.50;100.00;97135.50;5011141;28;20065;-79
2023/11/22 08:26:02;;;;;;;42.35;24.08;;;;;;;9.64;100.00;97134.59;5012656;28;20017;-78
2023/11/22 08:28:29;;;;;;;46.25;21.83;;;;;;;9.66;100.00;97149.53;4978946;28;20025;-77
2023/11/22 08:30:54;;;;;;;47.10;22.23;;;;;;;9.61;100.00;97142.78;5012048;28;20017;-77
2023/11/22 08:33:20;;;;;;;49.80;23.90;;;;;;;9.71;100.00;97157.28;5012396;28;20099;-77
2023/11/22 08:35:50;;;;;;;58.78;25.27;;;;;;;9.76;100.00;97149.81;4994573;28;20021;-78
2023/11/22 08:38:16;;;;;;;58.92;26.05;;;;;;;9.79;100.00;97154.94;4995522;28;20072;-80
2023/11/22 08:40:42;;;;;;;62.95;26.48;;;;;;;9.88;100.00;97159.69;4994965;28;20030;-77
2023/11/22 08:43:08;;;;;;;62.17;31.38;;;;;;;9.84;100.00;97160.88;4994608;28;20401;-77
2023/11/22 08:45:34;;;;;;;56.33;29.30;;;;;;;9.87;100.00;97168.69;4978338;28;20033;-78
2023/11/22 08:48:00;;;;;;;67.55;33.75;;;;;;;10.00;100.00;97172.25;4994284;28;20038;-79
2023/11/22 08:50:25;;;;;;;58.80;32.05;;;;;;;10.07;100.00;97170.88;4978286;28;20026;-77
2023/11/22 08:52:52;;;;;;;68.35;33.35;;;;;;;10.03;100.00;97163.19;4978362;28;20505;-77
2023/11/22 08:55:21;;;;;;;60.90;30.80;;;;;;;9.93;100.00;97173.63;4995191;28;20029;-77
2023/11/22 08:57:50;;;;;;;65.13;33.38;;;;;;;9.92;100.00;97179.91;4994612;28;20437;-79
2023/11/22 09:00:22;;;;;;;62.60;33.10;;;;;;;9.82;100.00;97186.81;4978290;28;20092;-80
2023/11/22 09:02:48;;;;;;;56.83;30.73;;;;;;;9.90;100.00;97186.31;4994724;28;20056;-78
2023/11/22 09:05:16;;;;;;;66.90;35.05;;;;;;;9.94;100.00;97180.66;4994293;28;20030;-79
2023/11/22 09:07:44;;;;;;;62.83;32.38;;;;;;;10.01;100.00;97179.31;4994065;28;20045;-78
2023/11/22 09:10:11;;;;;;;67.13;27.20;;;;;;;10.01;100.00;97186.47;4994828;28;20481;-77
2023/11/22 09:12:40;;;;;;;58.80;30.58;;;;;;;10.00;100.00;97185.59;4979105;28;20405;-79
2023/11/22 09:15:10;;;;;;;70.72;37.83;;;;;;;10.11;100.00;97199.13;4992297;28;20168;-78
2023/11/22 09:17:42;;;;;;;80.80;41.90;;;;;;;10.10;100.00;97189.41;5011892;28;20536;-81
2023/11/22 09:20:14;;;;;;;72.45;39.58;;;;;;;10.20;100.00;97193.22;4995094;28;20105;-79
2023/11/22 09:22:48;;;;;;;77.60;39.75;;;;;;;10.12;100.00;97192.81;4994850;28;20025;-78
2023/11/22 09:25:21;;;;;;;66.70;37.17;;;;;;;10.15;100.00;97186.47;4994204;28;20026;-79
2023/11/22 09:27:48;;;;;;;70.70;35.13;;;;;;;10.18;100.00;97199.63;4991473;28;20053;-79
2023/11/22 09:30:32;;;;;;;70.53;37.58;;;;;;;10.19;100.00;97190.63;5010737;28;20485;-79
2023/11/22 09:33:15;;;;;;;70.68;36.47;;;;;;;10.24;100.00;97194.69;5010036;28;20426;-80
2023/11/22 09:35:46;;;;;;;49.25;25.67;;;;;;;10.29;100.00;97197.09;5006883;28;20026;-80
2023/11/22 09:38:12;;;;;;;60.40;31.50;;;;;;;10.21;100.00;97194.91;4994068;28;20022;-80
2023/11/22 09:40:43;;;;;;;51.25;28.45;;;;;;;10.24;100.00;97194.69;5010652;28;20080;-80
2023/11/22 09:43:09;;;;;;;49.80;27.48;;;;;;;10.27;100.00;97191.00;4993832;28;20030;-79
2023/11/22 09:45:35;;;;;;;43.03;23.48;;;;;;;10.25;100.00;97192.91;5010162;28;20025;-79
2023/11/22 09:48:03;;;;;;;49.25;25.95;;;;;;;10.34;100.00;97198.50;5010005;28;20386;-79
2023/11/22 09:50:31;;;;;;;56.22;26.88;;;;;;;10.26;100.00;97200.81;4993656;28;20049;-80
2023/11/22 09:53:00;;;;;;;48.30;24.88;;;;;;;10.24;100.00;97197.38;5011285;28;20037;-79
2023/11/22 09:55:29;;;;;;;65.10;25.35;;;;;;;10.42;100.00;97205.16;5009970;28;20025;-78
2023/11/22 09:57:57;;;;;;;61.95;26.30;;;;;;;10.42;100.00;97205.16;4993633;28;20033;-78
2023/11/22 10:00:27;;;;;;;50.33;27.38;;;;;;;10.48;100.00;97204.75;5010302;28;20045;-80
2023/11/22 10:02:53;;;;;;;54.47;25.10;;;;;;;10.46;100.00;97204.00;5010478;28;20034;-79
2023/11/22 10:05:19;;;;;;;53.67;26.70;;;;;;;10.53;100.00;97205.28;5009841;28;20564;-79
2023/11/22 10:07:47;;;;;;;50.03;26.48;;;;;;;10.44;100.00;97200.53;5010081;28;20034;-79
2023/11/22 10:10:16;;;;;;;53.60;28.65;;;;;;;10.49;100.00;97201.94;5009417;28;20076;-79
2023/11/22 10:12:45;;;;;;;76.60;35.13;;;;;;;10.50;100.00;97200.13;5010189;28;20034;-79
2023/11/22 10:15:12;;;;;;;56.72;28.90;;;;;;;10.53;100.00;97207.94;5010081;28;20022;-79
2023/11/22 10:17:38;;;;;;;49.20;26.30;;;;;;;10.52;100.00;97207.09;5009874;28;20485;-79
2023/11/22 10:20:04;;;;;;;48.55;25.38;;;;;;;10.52;100.00;97206.25;5009846;28;20026;-79
2023/11/22 10:22:29;;;;;;;47.22;25.08;;;;;;;10.48;100.00;97202.06;5009878;28;20049;-79
2023/11/22 10:25:00;;;;;;;40.33;22.25;;;;;;;10.60;100.00;97202.09;5010319;28;20481;-78
2023/11/22 10:27:26;;;;;;;40.55;21.35;;;;;;;10.65;100.00;97204.44;5009644;28;20125;-78
2023/11/22 10:29:52;;;;;;;46.13;23.60;;;;;;;10.68;100.00;97185.50;4993691;28;20053;-78
2023/11/22 10:32:17;;;;;;;45.20;22.95;;;;;;;10.80;100.00;97182.88;5009736;28;20042;-78
2023/11/22 10:34:43;;;;;;;38.15;22.05;;;;;;;10.77;100.00;97171.50;5010360;28;20022;-80
2023/11/22 10:37:09;;;;;;;38.25;21.63;;;;;;;11.06;100.00;97194.44;4993798;28;20473;-78
2023/11/22 10:39:35;;;;;;;48.15;22.38;;;;;;;11.20;100.00;97186.31;5010503;28;20080;-79
2023/11/22 10:42:04;;;;;;;93.63;57.17;;;;;;;11.29;100.00;97190.16;5010918;28;20029;-79
2023/11/22 10:44:32;;;;;;;50.50;29.27;;;;;;;11.35;100.00;97168.31;5009630;28;20041;-79
2023/11/22 10:46:58;;;;;;;39.22;20.95;;;;;;;11.30;100.00;97182.03;5009751;28;20034;-79
2023/11/22 10:49:24;;;;;;;41.88;21.70;;;;;;;11.30;100.00;97171.31;5009331;28;20036;-79
2023/11/22 10:51:51;;;;;;;38.85;20.63;;;;;;;11.48;100.00;97174.50;5012901;28;20116;-78
2023/11/22 10:54:19;;;;;;;47.13;23.40;;;;;;;11.50;100.00;97171.72;5013357;28;20061;-79
2023/11/22 10:56:46;;;;;;;41.70;23.30;;;;;;;11.51;100.00;97168.06;5013249;28;20036;-79
2023/11/22 10:59:16;;;;;;;44.15;23.67;;;;;;;11.44;100.00;97181.88;5012957;28;20025;-79
2023/11/22 11:01:48;;;;;;;42.67;21.83;;;;;;;11.54;100.00;97189.25;5013441;28;20030;-79
2023/11/22 11:04:25;;;;;;;39.28;22.33;;;;;;;11.59;100.00;97182.63;5012891;28;20021;-78
2023/11/22 11:06:55;;;;;;;41.05;23.08;;;;;;;11.50;100.00;97187.78;5013337;28;20021;-78
2023/11/22 11:09:24;;;;;;;46.13;23.63;;;;;;;11.26;100.00;97191.22;4997222;28;20026;-78
2023/11/22 11:11:50;;;;;;;38.85;21.98;;;;;;;11.25;100.00;97192.22;5013030;28;20029;-77
2023/11/22 11:14:17;;;;;;;33.83;19.20;;;;;;;11.18;100.00;97200.75;5013970;28;20076;-77